« Back
NWS Peachtree City, Ga » Text Product » AHN Terminal Aerodrome Forecast


Printer-friendly Version
Current Version              Previous Versions:   1  2  3  4  5  6  7  8  9  

Terminal Aerodrome Forecast

774
FTUS42 KFFC 231100
TAFAHN
TAF
KAHN 231126Z 2312/2412 32006KT P6SM SKC
     FM240000 28005KT P6SM SKC
     FM240200 32005KT P6SM SKC
     FM240400 36006KT P6SM SKC
     FM240500 05006KT P6SM SKC=



USA.gov is the U.S. government's official web portal to all federal, state and local government web resources and services.